Time;durP1;ratioP1;P1;durP2;ratioP2;P2;SDS_P1;SDS_P2;PMS_P1;PMS_P2;Temp;Humidity;BMP_temperature;BMP_pressure;BME280_temperature;BME280_humidity;BME280_pressure;Samples;Min_cycle;Max_cycle;Signal;HPM_P1;HPM_P2
2022/10/15 00:00:17;;;;;;;;;;;12.60;99.90;;;;;;5074036;28;20508;-70
2022/10/15 00:02:42;;;;;;;;;;;12.60;99.90;;;;;;5072328;28;20005;-70
2022/10/15 00:05:08;;;;;;;;;;;12.60;99.90;;;;;;5079600;28;19927;-70
2022/10/15 00:07:33;;;;;;;;;;;12.60;99.90;;;;;;5088735;28;20358;-70
2022/10/15 00:09:59;;;;;;;;;;;12.60;99.90;;;;;;5076058;28;19923;-70
2022/10/15 00:12:24;;;;;;;;;;;12.60;99.90;;;;;;5083555;28;19949;-69
2022/10/15 00:14:50;;;;;;;;;;;12.60;99.90;;;;;;5079141;28;20424;-70
2022/10/15 00:17:16;;;;;;;;;;;12.60;99.90;;;;;;5076477;28;19975;-69
2022/10/15 00:19:41;;;;;;;;;;;12.60;99.90;;;;;;5084127;28;19932;-70
2022/10/15 00:22:07;;;;;;;;;;;12.60;99.90;;;;;;5076301;28;20335;-70
2022/10/15 00:24:32;;;;;;;;;;;12.60;99.90;;;;;;5082845;28;19932;-70
2022/10/15 00:26:58;;;;;;;;;;;12.60;99.90;;;;;;5084056;28;19932;-69
2022/10/15 00:29:23;;;;;;;;;;;12.60;99.90;;;;;;5081047;28;19931;-70
2022/10/15 00:31:49;;;;;;;;;;;12.60;99.90;;;;;;5077216;28;20386;-69
2022/10/15 00:34:15;;;;;;;;;;;12.60;99.90;;;;;;5086090;28;20684;-70
2022/10/15 00:36:40;;;;;;;;;;;12.60;99.90;;;;;;5070726;28;20013;-70
2022/10/15 00:39:06;;;;;;;;;;;12.60;99.90;;;;;;5071041;28;19932;-70
2022/10/15 00:41:34;;;;;;;;;;;12.70;99.90;;;;;;5080228;28;19943;-69
2022/10/15 00:44:00;;;;;;;;;;;12.70;99.90;;;;;;5075619;28;20034;-70
2022/10/15 00:46:34;;;;;;;;;;;12.60;99.90;;;;;;5081719;28;20298;-68
2022/10/15 00:49:18;;;;;;;;;;;12.60;99.90;;;;;;5080059;28;19932;-69
2022/10/15 00:51:51;;;;;;;;;;;12.60;99.90;;;;;;5074498;28;19931;-70
2022/10/15 00:54:18;;;;;;;;;;;12.60;99.90;;;;;;5087023;28;20056;-69
2022/10/15 00:56:44;;;;;;;;;;;12.60;99.90;;;;;;5084786;28;19924;-69
2022/10/15 00:59:11;;;;;;;;;;;12.60;99.90;;;;;;5083804;28;19935;-70
2022/10/15 01:01:37;;;;;;;;;;;12.60;99.90;;;;;;5075833;28;20005;-69
2022/10/15 01:04:04;;;;;;;;;;;12.60;99.90;;;;;;5064916;28;20050;-70
2022/10/15 01:06:30;;;;;;;;;;;12.60;99.90;;;;;;5083638;28;20019;-70
2022/10/15 01:08:56;;;;;;;;;;;12.60;99.90;;;;;;5078915;28;19924;-70
2022/10/15 01:11:29;;;;;;;;;;;12.60;99.90;;;;;;5076730;28;19977;-70
2022/10/15 01:14:10;;;;;;;;;;;12.60;99.90;;;;;;5089398;28;19924;-69
2022/10/15 01:16:35;;;;;;;;;;;12.60;99.90;;;;;;5080365;28;19934;-69
2022/10/15 01:19:05;;;;;;;;;;;12.60;99.90;;;;;;5080206;28;20027;-69
2022/10/15 01:21:37;;;;;;;;;;;12.60;99.90;;;;;;5076151;28;20283;-69
2022/10/15 01:24:21;;;;;;;;;;;12.60;99.90;;;;;;5073659;28;20015;-69
2022/10/15 01:27:06;;;;;;;;;;;12.60;99.90;;;;;;5077684;28;20031;-70
2022/10/15 01:29:50;;;;;;;;;;;12.60;99.90;;;;;;5077017;28;19940;-70
2022/10/15 01:32:20;;;;;;;;;;;12.60;99.90;;;;;;5071371;28;19931;-69
2022/10/15 01:34:55;;;;;;;;;;;12.50;99.90;;;;;;5090835;28;19924;-70
2022/10/15 01:37:25;;;;;;;;;;;12.50;99.90;;;;;;5077656;28;19968;-70
2022/10/15 01:39:56;;;;;;;;;;;12.60;99.90;;;;;;5079157;28;20298;-69
2022/10/15 01:42:25;;;;;;;;;;;12.60;99.90;;;;;;5075210;28;19983;-70
2022/10/15 01:44:51;;;;;;;;;;;12.50;99.90;;;;;;5068531;28;19926;-69
2022/10/15 01:47:23;;;;;;;;;;;12.50;99.90;;;;;;5051955;28;20383;-70
2022/10/15 01:49:51;;;;;;;;;;;12.50;99.90;;;;;;5070063;28;19929;-69
2022/10/15 01:52:19;;;;;;;;;;;12.50;99.90;;;;;;5068799;28;19928;-70
2022/10/15 01:54:46;;;;;;;;;;;12.50;99.90;;;;;;5070161;28;19928;-70
2022/10/15 01:57:12;;;;;;;;;;;12.50;99.90;;;;;;5069523;28;19939;-70
2022/10/15 01:59:38;;;;;;;;;;;12.50;99.90;;;;;;5069638;28;20286;-70
2022/10/15 02:02:04;;;;;;;;;;;12.50;99.90;;;;;;5068579;28;19939;-69
2022/10/15 02:04:30;;;;;;;;;;;12.50;99.90;;;;;;5051776;28;19924;-69
2022/10/15 02:07:22;;;;;;;;;;;12.50;99.90;;;;;;5068009;28;19932;-70
2022/10/15 02:09:50;;;;;;;;;;;12.50;99.90;;;;;;5058843;28;19947;-72
2022/10/15 02:12:24;;;;;;;;;;;12.50;99.90;;;;;;5068387;28;19977;-69
2022/10/15 02:14:53;;;;;;;;;;;12.50;99.90;;;;;;5071999;28;19967;-69
2022/10/15 02:17:23;;;;;;;;;;;12.50;99.90;;;;;;5073586;28;20008;-69
2022/10/15 02:19:56;;;;;;;;;;;12.50;99.90;;;;;;5071701;28;19924;-70
2022/10/15 02:22:25;;;;;;;;;;;12.50;99.90;;;;;;5073019;28;19966;-70
2022/10/15 02:24:50;;;;;;;;;;;12.50;99.90;;;;;;5073716;28;19928;-69
2022/10/15 02:27:17;;;;;;;;;;;12.50;99.90;;;;;;5073036;28;19950;-70
2022/10/15 02:29:44;;;;;;;;;;;12.50;99.90;;;;;;5075595;28;19925;-70
2022/10/15 02:32:10;;;;;;;;;;;12.50;99.90;;;;;;5072833;28;19976;-71
2022/10/15 02:34:36;;;;;;;;;;;12.40;99.90;;;;;;5105456;28;20069;-70
2022/10/15 02:37:02;;;;;;;;;;;12.50;99.90;;;;;;5072497;28;20015;-70
2022/10/15 02:39:28;;;;;;;;;;;12.50;99.90;;;;;;5073632;28;19993;-70
2022/10/15 02:41:54;;;;;;;;;;;12.40;99.90;;;;;;5072796;28;19964;-70
2022/10/15 02:44:19;;;;;;;;;;;12.40;99.90;;;;;;5071817;28;19932;-69
2022/10/15 02:46:45;;;;;;;;;;;12.40;99.90;;;;;;5072244;28;19932;-69
2022/10/15 02:49:11;;;;;;;;;;;12.40;99.90;;;;;;5072441;28;20302;-69
2022/10/15 02:51:36;;;;;;;;;;;12.40;99.90;;;;;;5072120;28;20291;-69
2022/10/15 02:54:03;;;;;;;;;;;12.40;99.90;;;;;;5072410;28;19954;-69
2022/10/15 02:56:28;;;;;;;;;;;12.40;99.90;;;;;;5088454;28;19925;-69
2022/10/15 02:58:54;;;;;;;;;;;12.40;99.90;;;;;;5072692;28;19929;-69
2022/10/15 03:01:20;;;;;;;;;;;12.40;99.90;;;;;;5073758;28;19928;-69
2022/10/15 03:03:45;;;;;;;;;;;12.40;99.90;;;;;;5070810;28;19935;-70
2022/10/15 03:06:11;;;;;;;;;;;12.40;99.90;;;;;;5072649;28;20321;-69
2022/10/15 03:08:36;;;;;;;;;;;12.40;99.90;;;;;;5068279;28;19931;-70
2022/10/15 03:11:02;;;;;;;;;;;12.40;99.90;;;;;;5084840;28;19935;-69
2022/10/15 03:13:27;;;;;;;;;;;12.40;99.90;;;;;;5072044;28;19925;-69
2022/10/15 03:15:53;;;;;;;;;;;12.30;99.90;;;;;;5070873;28;19929;-69
2022/10/15 03:18:19;;;;;;;;;;;12.30;99.90;;;;;;5071717;28;20362;-70
2022/10/15 03:20:51;;;;;;;;;;;12.30;99.90;;;;;;5072798;28;19993;-69
2022/10/15 03:23:17;;;;;;;;;;;12.30;99.90;;;;;;5071751;28;20298;-70
2022/10/15 03:25:42;;;;;;;;;;;12.30;99.90;;;;;;5071598;28;19925;-71
2022/10/15 03:28:08;;;;;;;;;;;12.30;99.90;;;;;;5070633;28;20342;-70
2022/10/15 03:30:33;;;;;;;;;;;12.30;99.90;;;;;;5069026;28;19967;-69
2022/10/15 03:32:59;;;;;;;;;;;12.30;99.90;;;;;;5071805;28;19929;-69
2022/10/15 03:35:24;;;;;;;;;;;12.30;99.90;;;;;;5071714;28;19925;-69
2022/10/15 03:37:50;;;;;;;;;;;12.30;99.90;;;;;;5070891;28;20070;-70
2022/10/15 03:40:16;;;;;;;;;;;12.30;99.90;;;;;;5070204;28;19924;-69
2022/10/15 03:42:41;;;;;;;;;;;12.30;99.90;;;;;;5071804;28;19928;-70
2022/10/15 03:45:07;;;;;;;;;;;12.30;99.90;;;;;;5070350;28;19925;-69
2022/10/15 03:47:33;;;;;;;;;;;12.30;99.90;;;;;;5071315;28;19951;-69
2022/10/15 03:49:58;;;;;;;;;;;12.30;99.90;;;;;;5070858;28;19986;-69
2022/10/15 03:52:24;;;;;;;;;;;12.30;99.90;;;;;;5071715;28;19924;-69
2022/10/15 03:54:49;;;;;;;;;;;12.30;99.90;;;;;;5069766;28;19924;-70
2022/10/15 03:57:15;;;;;;;;;;;12.30;99.90;;;;;;5070168;28;20337;-70
2022/10/15 03:59:40;;;;;;;;;;;12.30;99.90;;;;;;5069434;28;19925;-69
2022/10/15 04:02:06;;;;;;;;;;;12.30;99.90;;;;;;5053007;28;19924;-70
2022/10/15 04:04:32;;;;;;;;;;;12.30;99.90;;;;;;5079415;28;20045;-70
2022/10/15 04:06:57;;;;;;;;;;;12.30;99.90;;;;;;5070839;28;20585;-70
2022/10/15 04:09:23;;;;;;;;;;;12.30;99.90;;;;;;5071228;28;19924;-70
2022/10/15 04:11:48;;;;;;;;;;;12.30;99.90;;;;;;5068996;28;19924;-70
2022/10/15 04:14:14;;;;;;;;;;;12.30;99.90;;;;;;5070232;28;19925;-69
2022/10/15 04:16:40;;;;;;;;;;;12.30;99.90;;;;;;5069482;28;19925;-69
2022/10/15 04:19:05;;;;;;;;;;;12.30;99.90;;;;;;5070786;28;19928;-69
2022/10/15 04:21:31;;;;;;;;;;;12.30;99.90;;;;;;5070954;28;20418;-69
2022/10/15 04:23:56;;;;;;;;;;;12.30;99.90;;;;;;5075479;28;19928;-69
2022/10/15 04:26:22;;;;;;;;;;;12.30;99.90;;;;;;5079143;28;20417;-69
2022/10/15 04:28:48;;;;;;;;;;;12.30;99.90;;;;;;5068787;28;19924;-70
2022/10/15 04:31:14;;;;;;;;;;;12.30;99.90;;;;;;5071289;28;19931;-69
2022/10/15 04:33:39;;;;;;;;;;;12.30;99.90;;;;;;5068441;28;19928;-69
2022/10/15 04:36:06;;;;;;;;;;;12.30;99.90;;;;;;5058947;28;20336;-70
2022/10/15 04:38:32;;;;;;;;;;;12.30;99.90;;;;;;5068556;28;19935;-70
2022/10/15 04:41:06;;;;;;;;;;;12.30;99.90;;;;;;5072202;28;19928;-70
2022/10/15 04:43:32;;;;;;;;;;;12.30;99.90;;;;;;5068020;28;20449;-71
2022/10/15 04:45:58;;;;;;;;;;;12.30;99.90;;;;;;5103000;28;19932;-70
2022/10/15 04:48:24;;;;;;;;;;;12.30;99.90;;;;;;5070332;28;19934;-70
2022/10/15 04:50:50;;;;;;;;;;;12.30;99.90;;;;;;5069100;28;19924;-71
2022/10/15 04:53:15;;;;;;;;;;;12.30;99.90;;;;;;5071191;28;20302;-70
2022/10/15 04:55:41;;;;;;;;;;;12.30;99.90;;;;;;5069919;28;20458;-71
2022/10/15 04:58:06;;;;;;;;;;;12.30;99.90;;;;;;5068510;28;19928;-72
2022/10/15 05:00:32;;;;;;;;;;;12.30;99.90;;;;;;5065045;28;19929;-71
2022/10/15 05:02:57;;;;;;;;;;;12.10;99.90;;;;;;5069283;28;19979;-72
2022/10/15 05:05:23;;;;;;;;;;;12.20;99.90;;;;;;5069571;28;19932;-71
2022/10/15 05:07:49;;;;;;;;;;;12.20;99.90;;;;;;5069677;28;19928;-71
2022/10/15 05:10:14;;;;;;;;;;;12.20;99.90;;;;;;5068871;28;19925;-70
2022/10/15 05:12:40;;;;;;;;;;;12.20;99.90;;;;;;5072274;28;19955;-70
2022/10/15 05:15:06;;;;;;;;;;;12.20;99.90;;;;;;5068588;28;20015;-70
2022/10/15 05:17:31;;;;;;;;;;;12.20;99.90;;;;;;5069185;28;20574;-70
2022/10/15 05:19:57;;;;;;;;;;;12.20;99.90;;;;;;5069599;28;19924;-69
2022/10/15 05:22:22;;;;;;;;;;;12.10;99.90;;;;;;5066702;28;19932;-71
2022/10/15 05:24:48;;;;;;;;;;;12.10;99.90;;;;;;5071142;28;19924;-70
2022/10/15 05:27:13;;;;;;;;;;;12.10;99.90;;;;;;5061910;28;19990;-70
2022/10/15 05:29:39;;;;;;;;;;;12.10;99.90;;;;;;5068713;28;19932;-70
2022/10/15 05:32:05;;;;;;;;;;;12.10;99.90;;;;;;5068877;28;20382;-70
2022/10/15 05:34:30;;;;;;;;;;;12.10;99.90;;;;;;5071312;28;20410;-69
2022/10/15 05:36:56;;;;;;;;;;;12.10;99.90;;;;;;5069555;28;19924;-69
2022/10/15 05:39:22;;;;;;;;;;;12.10;99.90;;;;;;5067695;28;19935;-69
2022/10/15 05:41:48;;;;;;;;;;;12.10;99.90;;;;;;5069865;28;19924;-70
2022/10/15 05:44:14;;;;;;;;;;;12.10;99.90;;;;;;5070270;28;20018;-71
2022/10/15 05:46:40;;;;;;;;;;;12.10;99.90;;;;;;5068697;28;19924;-69
2022/10/15 05:49:05;;;;;;;;;;;12.10;99.90;;;;;;5069972;28;19929;-70
2022/10/15 05:51:31;;;;;;;;;;;12.00;99.90;;;;;;5073142;28;20007;-70
2022/10/15 05:53:57;;;;;;;;;;;12.10;99.90;;;;;;5073111;28;20289;-70
2022/10/15 05:56:23;;;;;;;;;;;12.10;99.90;;;;;;5074366;28;19929;-69
2022/10/15 05:58:49;;;;;;;;;;;12.10;99.90;;;;;;5072292;28;20344;-70
2022/10/15 06:01:14;;;;;;;;;;;12.10;99.90;;;;;;5072847;28;19924;-70
2022/10/15 06:03:40;;;;;;;;;;;12.10;99.90;;;;;;5071085;28;19932;-70
2022/10/15 06:06:15;;;;;;;;;;;12.10;99.90;;;;;;5073643;28;20297;-69
2022/10/15 06:08:41;;;;;;;;;;;12.10;99.90;;;;;;5060069;28;19935;-70
2022/10/15 06:11:07;;;;;;;;;;;12.10;99.90;;;;;;5068496;28;19924;-70
2022/10/15 06:13:33;;;;;;;;;;;12.10;99.90;;;;;;5073100;28;19951;-70
2022/10/15 06:15:58;;;;;;;;;;;12.10;99.90;;;;;;5077457;28;19928;-70
2022/10/15 06:18:24;;;;;;;;;;;12.20;99.90;;;;;;5071648;28;19953;-70
2022/10/15 06:20:51;;;;;;;;;;;12.20;99.90;;;;;;5103745;28;20004;-70
2022/10/15 06:23:17;;;;;;;;;;;12.20;99.90;;;;;;5072581;28;19928;-70
2022/10/15 06:25:43;;;;;;;;;;;12.20;99.90;;;;;;5076800;28;19928;-69
2022/10/15 06:28:08;;;;;;;;;;;12.20;99.90;;;;;;5072491;28;19924;-69
2022/10/15 06:30:34;;;;;;;;;;;12.20;99.90;;;;;;5072787;28;20364;-72
2022/10/15 06:32:59;;;;;;;;;;;12.20;99.90;;;;;;5071943;28;19928;-69
2022/10/15 06:35:25;;;;;;;;;;;12.20;99.90;;;;;;5072900;28;19998;-70
2022/10/15 06:37:52;;;;;;;;;;;12.20;99.90;;;;;;5074743;28;19975;-69
2022/10/15 06:40:17;;;;;;;;;;;12.20;99.90;;;;;;5073131;28;19924;-70
2022/10/15 06:42:43;;;;;;;;;;;12.30;99.90;;;;;;5071350;28;19925;-70
2022/10/15 06:45:09;;;;;;;;;;;12.30;99.90;;;;;;5072377;28;19924;-70
2022/10/15 06:47:35;;;;;;;;;;;12.30;99.90;;;;;;5073841;28;19932;-70
2022/10/15 06:50:02;;;;;;;;;;;12.30;99.90;;;;;;5076084;28;19932;-70
2022/10/15 06:52:28;;;;;;;;;;;12.30;99.90;;;;;;5071416;28;19925;-70
2022/10/15 06:54:54;;;;;;;;;;;12.30;99.90;;;;;;5068813;28;20014;-70
2022/10/15 06:57:19;;;;;;;;;;;12.30;99.90;;;;;;5068554;28;20549;-70
2022/10/15 06:59:45;;;;;;;;;;;12.30;99.90;;;;;;5078341;28;19931;-70
2022/10/15 07:02:12;;;;;;;;;;;12.30;99.90;;;;;;5071073;28;20017;-71
2022/10/15 07:04:38;;;;;;;;;;;12.30;99.90;;;;;;5070960;28;19935;-71
2022/10/15 07:07:04;;;;;;;;;;;12.30;99.90;;;;;;5087970;28;19924;-70
2022/10/15 07:09:29;;;;;;;;;;;12.30;99.90;;;;;;5071763;28;19978;-69
2022/10/15 07:11:55;;;;;;;;;;;12.40;99.90;;;;;;5070702;28;20302;-69
2022/10/15 07:14:20;;;;;;;;;;;12.40;99.90;;;;;;5070124;28;19925;-70
2022/10/15 07:16:46;;;;;;;;;;;12.40;99.90;;;;;;5104338;28;19979;-69
2022/10/15 07:19:12;;;;;;;;;;;12.40;99.90;;;;;;5072018;28;20157;-69
2022/10/15 07:21:37;;;;;;;;;;;12.40;99.90;;;;;;5070790;28;19989;-70
2022/10/15 07:24:03;;;;;;;;;;;12.40;99.90;;;;;;5053639;28;19939;-70
2022/10/15 07:26:29;;;;;;;;;;;12.40;99.90;;;;;;5050680;28;20311;-70
2022/10/15 07:28:55;;;;;;;;;;;12.50;99.90;;;;;;5071249;28;19979;-70
2022/10/15 07:31:21;;;;;;;;;;;12.50;99.90;;;;;;5071602;28;19972;-70
2022/10/15 07:33:47;;;;;;;;;;;12.50;99.90;;;;;;5071532;28;19931;-70
2022/10/15 07:36:12;;;;;;;;;;;12.50;99.90;;;;;;5064706;28;19951;-71
2022/10/15 07:38:41;;;;;;;;;;;12.50;99.90;;;;;;5083798;28;20013;-66
2022/10/15 07:41:07;;;;;;;;;;;12.60;99.90;;;;;;5092291;28;20414;-70
2022/10/15 07:43:33;;;;;;;;;;;12.60;99.90;;;;;;5070191;28;19924;-69
2022/10/15 07:45:59;;;;;;;;;;;12.60;99.90;;;;;;5070244;28;19932;-67
2022/10/15 07:48:24;;;;;;;;;;;12.60;99.90;;;;;;5070970;28;19928;-69
2022/10/15 07:50:57;;;;;;;;;;;12.60;99.90;;;;;;5070455;28;20332;-68
2022/10/15 07:53:23;;;;;;;;;;;12.60;99.90;;;;;;5071389;28;20394;-69
2022/10/15 07:55:49;;;;;;;;;;;12.80;99.90;;;;;;5070873;28;19972;-68
2022/10/15 07:58:14;;;;;;;;;;;13.10;99.90;;;;;;5069789;28;19928;-68
2022/10/15 08:00:40;;;;;;;;;;;13.30;99.90;;;;;;5071431;28;20055;-69
2022/10/15 08:03:06;;;;;;;;;;;13.60;99.90;;;;;;5073165;28;19924;-69
2022/10/15 08:05:32;;;;;;;;;;;14.00;99.90;;;;;;5081712;28;19928;-67
2022/10/15 08:07:57;;;;;;;;;;;14.40;99.90;;;;;;5071157;28;20035;-68
2022/10/15 08:10:23;;;;;;;;;;;14.50;99.90;;;;;;5076078;28;20019;-68
2022/10/15 08:12:48;;;;;;;;;;;14.50;99.90;;;;;;5082950;28;20339;-67
2022/10/15 08:15:14;;;;;;;;;;;14.40;99.90;;;;;;5054918;28;19935;-67
2022/10/15 08:17:40;;;;;;;;;;;14.20;99.90;;;;;;5069460;28;19924;-68
2022/10/15 08:20:05;;;;;;;;;;;14.20;99.90;;;;;;5054521;28;19931;-67
2022/10/15 08:22:32;;;;;;;;;;;14.20;99.90;;;;;;5082899;28;19932;-67
2022/10/15 08:24:57;;;;;;;;;;;14.10;99.90;;;;;;5071268;28;19935;-66
2022/10/15 08:27:23;;;;;;;;;;;14.00;99.90;;;;;;5068288;28;20004;-67
2022/10/15 08:29:49;;;;;;;;;;;14.00;99.90;;;;;;5064355;28;19978;-68
2022/10/15 08:32:14;;;;;;;;;;;14.00;99.90;;;;;;5070935;28;19924;-70
2022/10/15 08:34:40;;;;;;;;;;;13.90;99.90;;;;;;5070544;28;19981;-68
2022/10/15 08:37:05;;;;;;;;;;;13.80;99.90;;;;;;5070221;28;19928;-67
2022/10/15 08:39:31;;;;;;;;;;;13.80;99.90;;;;;;5052693;28;20318;-69
2022/10/15 08:41:58;;;;;;;;;;;13.90;99.90;;;;;;5053206;28;20028;-71
2022/10/15 08:44:32;;;;;;;;;;;13.90;99.90;;;;;;5070094;28;20025;-69
2022/10/15 08:47:01;;;;;;;;;;;14.00;99.90;;;;;;5070607;28;19924;-69
2022/10/15 08:49:26;;;;;;;;;;;14.00;99.90;;;;;;5103241;28;19997;-69
2022/10/15 08:51:54;;;;;;;;;;;14.00;99.90;;;;;;5069892;28;20386;-69
2022/10/15 08:54:20;;;;;;;;;;;14.00;99.90;;;;;;5069971;28;20011;-73
2022/10/15 08:57:06;;;;;;;;;;;14.00;99.90;;;;;;5070857;28;20019;-71
2022/10/15 08:59:37;;;;;;;;;;;14.00;99.90;;;;;;5068940;28;20361;-69
2022/10/15 09:02:23;;;;;;;;;;;14.10;99.90;;;;;;5070188;28;19928;-69
2022/10/15 09:05:07;;;;;;;;;;;14.10;99.90;;;;;;5101056;28;19925;-66
2022/10/15 09:07:39;;;;;;;;;;;14.10;99.90;;;;;;5071501;28;19981;-66
2022/10/15 09:10:11;;;;;;;;;;;14.20;99.90;;;;;;5079350;28;20294;-69
2022/10/15 09:12:44;;;;;;;;;;;14.20;99.90;;;;;;5066804;28;19925;-69
2022/10/15 09:15:12;;;;;;;;;;;14.20;99.90;;;;;;5073574;28;20402;-67
2022/10/15 09:17:38;;;;;;;;;;;14.10;99.90;;;;;;5069438;28;20323;-67
2022/10/15 09:20:06;;;;;;;;;;;14.10;99.90;;;;;;5070133;28;20316;-70
2022/10/15 09:22:33;;;;;;;;;;;14.20;99.90;;;;;;5070517;28;19928;-70
2022/10/15 09:24:59;;;;;;;;;;;14.20;99.90;;;;;;5074935;28;19980;-70
2022/10/15 09:27:35;;;;;;;;;;;14.20;99.90;;;;;;5074649;28;19964;-70
2022/10/15 09:30:19;;;;;;;;;;;14.20;99.90;;;;;;5071552;28;19935;-71
2022/10/15 09:32:51;;;;;;;;;;;14.20;99.90;;;;;;5061534;28;19928;-70
2022/10/15 09:35:19;;;;;;;;;;;14.30;99.90;;;;;;5079893;28;20021;-71
2022/10/15 09:37:48;;;;;;;;;;;14.30;99.90;;;;;;5101685;28;20294;-72
2022/10/15 09:40:38;;;;;;;;;;;14.30;99.90;;;;;;5082582;28;20401;-71
2022/10/15 09:43:04;;;;;;;;;;;14.20;99.90;;;;;;5079442;28;19972;-72
2022/10/15 09:45:31;;;;;;;;;;;14.20;99.90;;;;;;5089113;28;19928;-72
2022/10/15 09:47:59;;;;;;;;;;;14.20;99.90;;;;;;5082600;28;19976;-69
2022/10/15 09:50:31;;;;;;;;;;;14.20;99.90;;;;;;5082114;28;20007;-70
2022/10/15 09:52:56;;;;;;;;;;;14.10;99.90;;;;;;5109002;27;19936;-70
2022/10/15 09:55:45;;;;;;;;;;;14.10;99.90;;;;;;5084837;28;19928;-67
2022/10/15 09:58:22;;;;;;;;;;;14.00;99.90;;;;;;5078435;28;19933;-75
2022/10/15 10:00:53;;;;;;;;;;;14.00;99.90;;;;;;5087347;28;19959;-70
2022/10/15 10:03:20;;;;;;;;;;;14.10;99.90;;;;;;5068001;28;19972;-69
2022/10/15 10:05:46;;;;;;;;;;;14.00;99.90;;;;;;5103922;28;19983;-69
2022/10/15 10:08:12;;;;;;;;;;;14.00;99.90;;;;;;5070702;28;19971;-69
2022/10/15 10:10:38;;;;;;;;;;;13.90;99.90;;;;;;5069856;28;19924;-73
2022/10/15 10:13:06;;;;;;;;;;;13.90;99.90;;;;;;5069379;28;19931;-69
2022/10/15 10:15:33;;;;;;;;;;;13.90;99.90;;;;;;5072810;28;19933;-69
2022/10/15 10:17:59;;;;;;;;;;;13.80;99.90;;;;;;5073136;28;19924;-68
2022/10/15 10:20:26;;;;;;;;;;;13.80;99.90;;;;;;5056234;28;20386;-69
2022/10/15 10:22:51;;;;;;;;;;;13.80;99.90;;;;;;5073273;28;19931;-69
2022/10/15 10:25:26;;;;;;;;;;;13.80;99.90;;;;;;5073482;28;20355;-68
2022/10/15 10:27:52;;;;;;;;;;;13.80;99.90;;;;;;5072001;28;20199;-69
2022/10/15 10:30:17;;;;;;;;;;;13.70;99.90;;;;;;5104752;28;19994;-69
2022/10/15 10:32:43;;;;;;;;;;;13.70;99.90;;;;;;5076291;28;19985;-68
2022/10/15 10:35:19;;;;;;;;;;;13.70;99.90;;;;;;5071425;28;20571;-69
2022/10/15 10:37:44;;;;;;;;;;;13.70;99.90;;;;;;5072944;28;19924;-69
2022/10/15 10:40:25;;;;;;;;;;;13.80;99.90;;;;;;5072084;28;19928;-69
2022/10/15 10:43:08;;;;;;;;;;;13.90;99.90;;;;;;5055232;28;20290;-70
2022/10/15 10:45:34;;;;;;;;;;;13.90;99.90;;;;;;5069191;28;19946;-69
2022/10/15 10:48:16;;;;;;;;;;;13.90;99.90;;;;;;5073093;28;19928;-68
2022/10/15 10:50:42;;;;;;;;;;;13.90;99.90;;;;;;5067812;28;19924;-69
2022/10/15 10:53:26;;;;;;;;;;;14.00;99.90;;;;;;5071897;28;19924;-69
2022/10/15 10:55:53;;;;;;;;;;;14.00;99.90;;;;;;5069405;28;19943;-68
2022/10/15 10:58:20;;;;;;;;;;;14.10;99.90;;;;;;5080905;28;19932;-68
2022/10/15 11:00:47;;;;;;;;;;;14.20;99.90;;;;;;5071002;28;19920;-69
2022/10/15 11:03:15;;;;;;;;;;;14.30;99.90;;;;;;5071708;28;19928;-69
2022/10/15 11:05:42;;;;;;;;;;;14.40;99.90;;;;;;5071443;28;19929;-69
2022/10/15 11:08:10;;;;;;;;;;;14.40;99.90;;;;;;5072753;28;19925;-69
2022/10/15 11:10:55;;;;;;;;;;;14.40;99.90;;;;;;5075546;28;19931;-68
2022/10/15 11:13:40;;;;;;;;;;;14.50;99.90;;;;;;5072263;28;20308;-69
2022/10/15 11:16:14;;;;;;;;;;;14.50;99.90;;;;;;5072970;28;19967;-69
2022/10/15 11:18:58;;;;;;;;;;;14.50;99.90;;;;;;5071839;28;20391;-68
2022/10/15 11:21:27;;;;;;;;;;;14.50;99.90;;;;;;5072523;28;19932;-68
2022/10/15 11:23:55;;;;;;;;;;;14.50;99.90;;;;;;5080572;28;19943;-68
2022/10/15 11:26:20;;;;;;;;;;;14.50;99.90;;;;;;5064277;28;19982;-69
2022/10/15 11:28:53;;;;;;;;;;;14.60;99.90;;;;;;5072073;28;19928;-69
2022/10/15 11:31:18;;;;;;;;;;;14.60;99.90;;;;;;5072661;28;19987;-68
2022/10/15 11:33:49;;;;;;;;;;;14.60;99.90;;;;;;5070688;28;19963;-69
2022/10/15 11:36:18;;;;;;;;;;;14.70;99.90;;;;;;5076021;28;20378;-69
2022/10/15 11:39:02;;;;;;;;;;;14.70;99.90;;;;;;5072023;28;19931;-69
2022/10/15 11:41:36;;;;;;;;;;;14.70;99.90;;;;;;5072197;28;19928;-69
2022/10/15 11:44:20;;;;;;;;;;;14.80;99.90;;;;;;5071764;28;20050;-69
2022/10/15 11:46:46;;;;;;;;;;;14.80;99.90;;;;;;5070882;28;19979;-69
2022/10/15 11:49:30;;;;;;;;;;;14.90;99.90;;;;;;5075001;28;20055;-69
2022/10/15 11:51:56;;;;;;;;;;;14.90;99.90;;;;;;5071784;28;19925;-69
2022/10/15 11:54:27;;;;;;;;;;;15.00;99.90;;;;;;5071715;28;19975;-68
2022/10/15 11:56:55;;;;;;;;;;;15.00;99.90;;;;;;5070601;28;20362;-69
2022/10/15 11:59:30;;;;;;;;;;;15.10;99.90;;;;;;5072788;28;19925;-69
2022/10/15 12:02:00;;;;;;;;;;;15.20;99.90;;;;;;5069596;28;19928;-69
2022/10/15 12:04:43;;;;;;;;;;;15.20;99.90;;;;;;5071557;28;19972;-69
2022/10/15 12:07:14;;;;;;;;;;;15.20;99.90;;;;;;5059776;28;19948;-69
2022/10/15 12:09:42;;;;;;;;;;;15.20;99.90;;;;;;5070788;28;19920;-69
2022/10/15 12:12:16;;;;;;;;;;;15.30;99.90;;;;;;5076191;28;19924;-68
2022/10/15 12:14:49;;;;;;;;;;;15.30;99.90;;;;;;5077016;28;20013;-69
2022/10/15 12:17:15;;;;;;;;;;;15.40;99.90;;;;;;5066357;28;19935;-68
2022/10/15 12:19:45;;;;;;;;;;;15.40;99.90;;;;;;5071311;28;20371;-69
2022/10/15 12:22:11;;;;;;;;;;;15.40;99.90;;;;;;5070129;28;19924;-69
2022/10/15 12:24:36;;;;;;;;;;;15.70;99.90;;;;;;5070673;28;19934;-68
2022/10/15 12:27:19;;;;;;;;;;;15.40;99.90;;;;;;5069384;28;19975;-69
2022/10/15 12:29:49;;;;;;;;;;;15.40;99.90;;;;;;5070371;28;19970;-69
2022/10/15 12:32:27;;;;;;;;;;;15.40;99.90;;;;;;5071260;28;20299;-69
2022/10/15 12:34:54;;;;;;;;;;;15.40;99.90;;;;;;5070689;28;19994;-69
2022/10/15 12:37:21;;;;;;;;;;;15.30;99.90;;;;;;5070421;28;19931;-69
2022/10/15 12:39:53;;;;;;;;;;;15.30;99.90;;;;;;5070696;28;20034;-69
2022/10/15 12:42:27;;;;;;;;;;;15.30;99.90;;;;;;5071127;28;19931;-69
2022/10/15 12:44:54;;;;;;;;;;;15.40;99.90;;;;;;5069538;28;20378;-69
2022/10/15 12:47:45;;;;;;;;;;;15.40;99.90;;;;;;5070197;28;20422;-69
2022/10/15 12:50:16;;;;;;;;;;;15.40;99.90;;;;;;5078811;28;20106;-69
2022/10/15 12:52:48;;;;;;;;;;;15.40;99.90;;;;;;5073187;28;20059;-69
2022/10/15 12:55:23;;;;;;;;;;;15.30;99.90;;;;;;5071325;28;19925;-70
2022/10/15 12:57:52;;;;;;;;;;;15.40;99.90;;;;;;5070143;28;20298;-68
2022/10/15 13:00:24;;;;;;;;;;;15.40;99.90;;;;;;5070964;28;19928;-69
2022/10/15 13:02:50;;;;;;;;;;;15.40;99.90;;;;;;5070609;28;19947;-70
2022/10/15 13:05:25;;;;;;;;;;;15.30;99.90;;;;;;5070168;28;19924;-69
2022/10/15 13:07:50;;;;;;;;;;;15.30;99.90;;;;;;5073035;28;20341;-69
2022/10/15 13:10:19;;;;;;;;;;;15.30;99.90;;;;;;5070807;28;20011;-68
2022/10/15 13:12:50;;;;;;;;;;;15.30;99.90;;;;;;5070857;28;19929;-69
2022/10/15 13:15:15;;;;;;;;;;;15.20;99.90;;;;;;5070310;28;19928;-68
2022/10/15 13:17:41;;;;;;;;;;;15.20;99.90;;;;;;5072000;28;20444;-69
2022/10/15 13:20:25;;;;;;;;;;;15.20;99.90;;;;;;5071673;28;20144;-68
2022/10/15 13:22:50;;;;;;;;;;;15.20;99.90;;;;;;5071076;28;19932;-68
2022/10/15 13:25:16;;;;;;;;;;;15.20;99.90;;;;;;5068805;28;20379;-68
2022/10/15 13:27:42;;;;;;;;;;;15.20;99.90;;;;;;5069902;28;19928;-69
2022/10/15 13:30:12;;;;;;;;;;;15.20;99.90;;;;;;5069135;28;19933;-69
2022/10/15 13:32:41;;;;;;;;;;;15.10;99.90;;;;;;5070997;28;19928;-69
2022/10/15 13:35:12;;;;;;;;;;;15.10;99.90;;;;;;5070345;28;19935;-68
2022/10/15 13:37:39;;;;;;;;;;;15.10;99.90;;;;;;5057352;28;19978;-69
2022/10/15 13:40:05;;;;;;;;;;;15.20;99.90;;;;;;5069556;28;19970;-69
2022/10/15 13:42:31;;;;;;;;;;;15.20;99.90;;;;;;5081016;28;19963;-70
2022/10/15 13:45:02;;;;;;;;;;;15.10;99.90;;;;;;5070374;28;19972;-69
2022/10/15 13:47:29;;;;;;;;;;;15.10;99.90;;;;;;5070263;28;19931;-69
2022/10/15 13:50:17;;;;;;;;;;;15.20;99.90;;;;;;5069432;28;19925;-70
2022/10/15 13:52:44;;;;;;;;;;;15.10;99.90;;;;;;5070070;28;19928;-69
2022/10/15 13:55:18;;;;;;;;;;;15.10;99.90;;;;;;5071042;28;20030;-70
2022/10/15 13:57:45;;;;;;;;;;;15.10;99.90;;;;;;5070721;28;20310;-70
2022/10/15 14:00:23;;;;;;;;;;;15.10;99.90;;;;;;5084637;28;20295;-69
2022/10/15 14:03:07;;;;;;;;;;;15.10;99.90;;;;;;5070087;28;19929;-69
2022/10/15 14:05:33;;;;;;;;;;;15.00;99.90;;;;;;5075187;28;20390;-69
2022/10/15 14:07:59;;;;;;;;;;;15.10;99.90;;;;;;5069996;28;19928;-70
2022/10/15 14:10:24;;;;;;;;;;;15.00;99.90;;;;;;5070802;28;19925;-69
2022/10/15 14:12:51;;;;;;;;;;;15.00;99.90;;;;;;5073796;28;19924;-70
2022/10/15 14:15:35;;;;;;;;;;;15.00;99.90;;;;;;5072178;28;19932;-69
2022/10/15 14:18:01;;;;;;;;;;;15.00;99.90;;;;;;5055727;28;20321;-69
2022/10/15 14:20:27;;;;;;;;;;;14.90;99.90;;;;;;5052548;28;19971;-70
2022/10/15 14:22:53;;;;;;;;;;;15.00;99.90;;;;;;5065361;28;19924;-70